2026/08/18

Sensor Date Temp./Hum.
h4-hermonville 18-08-2026 - 23:58 22.4°C / 72.5%
h2-hermonville 18-08-2026 - 23:53 21.2°C / 78.5%
h1-hermonville 18-08-2026 - 23:53 21.7°C / 76.5%
h3-hermonville 18-08-2026 - 23:49 21.7°C / 76%
h4-hermonville 18-08-2026 - 23:48 22.4°C / 72%
h2-hermonville 18-08-2026 - 23:43 21.5°C / 78%
h1-hermonville 18-08-2026 - 23:43 21.9°C / 76%
h3-hermonville 18-08-2026 - 23:39 21.8°C / 76%
h4-hermonville 18-08-2026 - 23:38 22.5°C / 72%
h2-hermonville 18-08-2026 - 23:33 21.5°C / 78%
h1-hermonville 18-08-2026 - 23:33 21.8°C / 76%
h3-hermonville 18-08-2026 - 23:29 21.8°C / 76.5%
h4-hermonville 18-08-2026 - 23:28 22.5°C / 72%
h2-hermonville 18-08-2026 - 23:23 21.5°C / 78%
h1-hermonville 18-08-2026 - 23:23 22°C / 76%
h4-hermonville 18-08-2026 - 23:18 22.5°C / 72%
h2-hermonville 18-08-2026 - 23:13 21.6°C / 78.5%
h1-hermonville 18-08-2026 - 23:13 22.1°C / 76%
h3-hermonville 18-08-2026 - 23:09 21.6°C / 78%
h4-hermonville 18-08-2026 - 23:08 22.6°C / 72.5%
h2-hermonville 18-08-2026 - 23:03 21.5°C / 79%
h3-hermonville 18-08-2026 - 22:59 21.6°C / 78.5%
h4-hermonville 18-08-2026 - 22:58 22.6°C / 73%
h2-hermonville 18-08-2026 - 22:54 21.5°C / 79%
h1-hermonville 18-08-2026 - 22:53 22.3°C / 77%
h3-hermonville 18-08-2026 - 22:49 21.7°C / 78.5%
h4-hermonville 18-08-2026 - 22:48 22.7°C / 73%
h2-hermonville 18-08-2026 - 22:43 21.6°C / 79%
h1-hermonville 18-08-2026 - 22:43 22.3°C / 77%
h3-hermonville 18-08-2026 - 22:39 22°C / 78%
h4-hermonville 18-08-2026 - 22:38 22.9°C / 73%
h2-hermonville 18-08-2026 - 22:34 22°C / 79.5%
h3-hermonville 18-08-2026 - 22:29 22°C / 78%
h4-hermonville 18-08-2026 - 22:28 22.9°C / 73.5%
h2-hermonville 18-08-2026 - 22:23 22.1°C / 79%
h1-hermonville 18-08-2026 - 22:23 22.5°C / 77%
h3-hermonville 18-08-2026 - 22:19 22°C / 78.5%
h4-hermonville 18-08-2026 - 22:18 23°C / 74%
h1-hermonville 18-08-2026 - 22:13 22.7°C / 77%
h3-hermonville 18-08-2026 - 22:09 22.3°C / 78%
h2-hermonville 18-08-2026 - 22:03 22.6°C / 77%
h1-hermonville 18-08-2026 - 22:03 22.9°C / 76%
h3-hermonville 18-08-2026 - 21:59 22.8°C / 75.5%
h4-hermonville 18-08-2026 - 21:58 23.2°C / 73%
h2-hermonville 18-08-2026 - 21:53 22.8°C / 76.5%
h3-hermonville 18-08-2026 - 21:49 23°C / 75%
h1-hermonville 18-08-2026 - 21:43 22.9°C / 75.5%
h3-hermonville 18-08-2026 - 21:39 23.2°C / 74.5%
h4-hermonville 18-08-2026 - 21:38 23.3°C / 72%
h2-hermonville 18-08-2026 - 21:33 23.2°C / 75.5%
h1-hermonville 18-08-2026 - 21:33 22.9°C / 76%
h3-hermonville 18-08-2026 - 21:29 23°C / 75%
h2-hermonville 18-08-2026 - 21:24 23.2°C / 74.5%
h1-hermonville 18-08-2026 - 21:23 22.8°C / 76%
h3-hermonville 18-08-2026 - 21:19 23.1°C / 74.5%
h2-hermonville 18-08-2026 - 21:13 23.1°C / 74.5%
h1-hermonville 18-08-2026 - 21:13 22.8°C / 75.5%
h3-hermonville 18-08-2026 - 21:09 23°C / 74.5%
h4-hermonville 18-08-2026 - 21:08 23.4°C / 72%
h1-hermonville 18-08-2026 - 21:03 22.9°C / 75.5%
h3-hermonville 18-08-2026 - 20:59 23°C / 75%
h4-hermonville 18-08-2026 - 20:58 23.3°C / 72%
h2-hermonville 18-08-2026 - 20:53 23.1°C / 75%
h1-hermonville 18-08-2026 - 20:53 23°C / 75%
h3-hermonville 18-08-2026 - 20:49 23.1°C / 74.5%
h4-hermonville 18-08-2026 - 20:48 23.3°C / 72%
h2-hermonville 18-08-2026 - 20:43 23.1°C / 74.5%
h1-hermonville 18-08-2026 - 20:43 23°C / 75%
h3-hermonville 18-08-2026 - 20:39 23°C / 74.5%
h4-hermonville 18-08-2026 - 20:38 23.4°C / 72%
h2-hermonville 18-08-2026 - 20:33 23.1°C / 75%
h1-hermonville 18-08-2026 - 20:33 22.9°C / 75%
h3-hermonville 18-08-2026 - 20:29 22.8°C / 75%
h2-hermonville 18-08-2026 - 20:23 23.1°C / 75%
h1-hermonville 18-08-2026 - 20:23 23°C / 75.5%
h3-hermonville 18-08-2026 - 20:19 22.8°C / 75.5%
h4-hermonville 18-08-2026 - 20:18 23.3°C / 72.5%
h2-hermonville 18-08-2026 - 20:13 23°C / 76%
h1-hermonville 18-08-2026 - 20:13 23°C / 75.5%
h3-hermonville 18-08-2026 - 20:09 22.7°C / 76.5%
h4-hermonville 18-08-2026 - 20:08 23.4°C / 73%
h1-hermonville 18-08-2026 - 20:03 23°C / 76.5%
h3-hermonville 18-08-2026 - 19:59 22.6°C / 78.5%
h4-hermonville 18-08-2026 - 19:58 23.4°C / 73.5%
h2-hermonville 18-08-2026 - 19:53 22.5°C / 79.5%
h1-hermonville 18-08-2026 - 19:53 23.1°C / 77%
h3-hermonville 18-08-2026 - 19:49 22.2°C / 80%
h2-hermonville 18-08-2026 - 19:43 22.4°C / 80%
h1-hermonville 18-08-2026 - 19:43 23°C / 77.5%
h3-hermonville 18-08-2026 - 19:39 22.1°C / 81%
h4-hermonville 18-08-2026 - 19:38 23.4°C / 74.5%
h2-hermonville 18-08-2026 - 19:33 22.5°C / 80.5%
h1-hermonville 18-08-2026 - 19:33 22.9°C / 78.5%
h3-hermonville 18-08-2026 - 19:29 22°C / 82%
h4-hermonville 18-08-2026 - 19:28 23.4°C / 74.5%
h2-hermonville 18-08-2026 - 19:23 22.1°C / 82%
h3-hermonville 18-08-2026 - 19:19 21.8°C / 82.5%
h4-hermonville 18-08-2026 - 19:18 23.3°C / 75%
h2-hermonville 18-08-2026 - 19:13 22°C / 81.5%
h1-hermonville 18-08-2026 - 19:13 22.7°C / 79.5%
h3-hermonville 18-08-2026 - 19:09 21.6°C / 82.5%
h4-hermonville 18-08-2026 - 19:08 23.3°C / 74.5%
h1-hermonville 18-08-2026 - 19:03 22.8°C / 79%
h3-hermonville 18-08-2026 - 18:59 22.1°C / 81.5%
h4-hermonville 18-08-2026 - 18:58 23.4°C / 74.5%
h2-hermonville 18-08-2026 - 18:53 22.5°C / 80%
h1-hermonville 18-08-2026 - 18:53 22.7°C / 80%
h3-hermonville 18-08-2026 - 18:49 22.1°C / 81%
h4-hermonville 18-08-2026 - 18:48 23.4°C / 75%
h2-hermonville 18-08-2026 - 18:43 22.9°C / 78.5%
h1-hermonville 18-08-2026 - 18:43 22.3°C / 81.5%
h4-hermonville 18-08-2026 - 18:38 23.4°C / 75.5%
h2-hermonville 18-08-2026 - 18:33 24°C / 75.5%
h3-hermonville 18-08-2026 - 18:29 22.1°C / 81%
h4-hermonville 18-08-2026 - 18:28 23.6°C / 74%
h2-hermonville 18-08-2026 - 18:23 24.3°C / 73%
h1-hermonville 18-08-2026 - 18:23 22.1°C / 82%
h3-hermonville 18-08-2026 - 18:19 22.5°C / 77.5%
h4-hermonville 18-08-2026 - 18:18 24°C / 70.5%
h2-hermonville 18-08-2026 - 18:13 24°C / 72.5%
h1-hermonville 18-08-2026 - 18:13 23.1°C / 76.5%
h3-hermonville 18-08-2026 - 18:09 23.1°C / 75%
h4-hermonville 18-08-2026 - 18:08 24.1°C / 70%
h2-hermonville 18-08-2026 - 18:03 24.5°C / 69.5%
h1-hermonville 18-08-2026 - 18:03 23°C / 76.5%
h3-hermonville 18-08-2026 - 17:59 22.9°C / 76%
h4-hermonville 18-08-2026 - 17:58 24.3°C / 69.5%
h2-hermonville 18-08-2026 - 17:53 25.3°C / 67%
h1-hermonville 18-08-2026 - 17:53 22.7°C / 78%
h3-hermonville 18-08-2026 - 17:49 22.8°C / 76%
h4-hermonville 18-08-2026 - 17:48 24.5°C / 68.5%
h2-hermonville 18-08-2026 - 17:43 25.7°C / 65.5%
h1-hermonville 18-08-2026 - 17:43 22.7°C / 77.5%
h3-hermonville 18-08-2026 - 17:39 23.5°C / 73.5%
h4-hermonville 18-08-2026 - 17:38 25°C / 66%
h2-hermonville 18-08-2026 - 17:33 25.9°C / 63.5%
h1-hermonville 18-08-2026 - 17:33 23.5°C / 73%
h3-hermonville 18-08-2026 - 17:29 24.1°C / 68.5%
h4-hermonville 18-08-2026 - 17:28 25.3°C / 63.5%
h2-hermonville 18-08-2026 - 17:23 26.1°C / 62%
h1-hermonville 18-08-2026 - 17:23 24.4°C / 67%
h3-hermonville 18-08-2026 - 17:19 25°C / 62.5%
h4-hermonville 18-08-2026 - 17:18 25.8°C / 58%
h2-hermonville 18-08-2026 - 17:13 26.2°C / 58%
h1-hermonville 18-08-2026 - 17:13 25.3°C / 61%
h3-hermonville 18-08-2026 - 17:09 25.4°C / 59.5%
h4-hermonville 18-08-2026 - 17:08 26.1°C / 56.5%
h2-hermonville 18-08-2026 - 17:03 26.1°C / 57.5%
h1-hermonville 18-08-2026 - 17:03 25.9°C / 58.5%
h3-hermonville 18-08-2026 - 16:59 25.6°C / 58%
h4-hermonville 18-08-2026 - 16:58 26.1°C / 56%
h2-hermonville 18-08-2026 - 16:53 26°C / 58%
h1-hermonville 18-08-2026 - 16:53 25.7°C / 58.5%
h3-hermonville 18-08-2026 - 16:49 25.6°C / 58.5%
h4-hermonville 18-08-2026 - 16:48 26.1°C / 56%
h2-hermonville 18-08-2026 - 16:43 26.2°C / 57.5%
h1-hermonville 18-08-2026 - 16:43 25.7°C / 58.5%
h3-hermonville 18-08-2026 - 16:39 25.6°C / 58.5%
h4-hermonville 18-08-2026 - 16:38 26.2°C / 55.5%
h2-hermonville 18-08-2026 - 16:33 26.1°C / 57.5%
h3-hermonville 18-08-2026 - 16:29 25.6°C / 58%
h4-hermonville 18-08-2026 - 16:28 26.2°C / 55.5%
h2-hermonville 18-08-2026 - 16:23 26.1°C / 57%
h1-hermonville 18-08-2026 - 16:23 25.8°C / 57.5%
h3-hermonville 18-08-2026 - 16:19 25.5°C / 58%
h4-hermonville 18-08-2026 - 16:18 26.2°C / 55%
h2-hermonville 18-08-2026 - 16:13 26.1°C / 57%
h1-hermonville 18-08-2026 - 16:13 25.7°C / 58%
h3-hermonville 18-08-2026 - 16:09 25.5°C / 57.5%
h2-hermonville 18-08-2026 - 16:03 26.3°C / 56%
h1-hermonville 18-08-2026 - 16:03 25.7°C / 58%
h3-hermonville 18-08-2026 - 15:59 25.6°C / 57.5%
h2-hermonville 18-08-2026 - 15:53 26.3°C / 56%
h1-hermonville 18-08-2026 - 15:53 25.8°C / 57.5%
h3-hermonville 18-08-2026 - 15:49 25.6°C / 57.5%
h4-hermonville 18-08-2026 - 15:48 26.4°C / 54.5%
h2-hermonville 18-08-2026 - 15:43 26.3°C / 56%
h1-hermonville 18-08-2026 - 15:43 25.8°C / 57.5%
h3-hermonville 18-08-2026 - 15:39 25.5°C / 57.5%
h4-hermonville 18-08-2026 - 15:38 26.3°C / 54.5%
h2-hermonville 18-08-2026 - 15:33 26.4°C / 55%
h1-hermonville 18-08-2026 - 15:33 25.7°C / 57.5%
h3-hermonville 18-08-2026 - 15:29 25.5°C / 57.5%
h4-hermonville 18-08-2026 - 15:28 26.3°C / 54%
h2-hermonville 18-08-2026 - 15:23 26°C / 56%
h1-hermonville 18-08-2026 - 15:23 25.7°C / 56.5%
h3-hermonville 18-08-2026 - 15:19 25.3°C / 57%
h2-hermonville 18-08-2026 - 15:13 25.9°C / 55.5%
h1-hermonville 18-08-2026 - 15:13 25.6°C / 56.5%
h3-hermonville 18-08-2026 - 15:09 25.3°C / 56%
h4-hermonville 18-08-2026 - 15:08 26.1°C / 53%
h2-hermonville 18-08-2026 - 15:03 25.6°C / 55.5%
h1-hermonville 18-08-2026 - 15:03 25.6°C / 56%
h3-hermonville 18-08-2026 - 14:59 25.4°C / 56%
h4-hermonville 18-08-2026 - 14:58 26.2°C / 53%
h1-hermonville 18-08-2026 - 14:53 25.7°C / 56%
h3-hermonville 18-08-2026 - 14:49 25.4°C / 55.5%
h4-hermonville 18-08-2026 - 14:48 26.2°C / 52.5%
h2-hermonville 18-08-2026 - 14:43 25.8°C / 55%
h3-hermonville 18-08-2026 - 14:39 25.4°C / 55%
h4-hermonville 18-08-2026 - 14:38 26.2°C / 52%
h2-hermonville 18-08-2026 - 14:33 25.7°C / 54.5%
h1-hermonville 18-08-2026 - 14:33 25.7°C / 54%
h3-hermonville 18-08-2026 - 14:29 25.4°C / 55%
h1-hermonville 18-08-2026 - 14:23 25.8°C / 54%
h3-hermonville 18-08-2026 - 14:19 25.5°C / 54%
h4-hermonville 18-08-2026 - 14:18 26.6°C / 50.5%
h2-hermonville 18-08-2026 - 14:13 26.1°C / 53%
h1-hermonville 18-08-2026 - 14:13 25.8°C / 54%
h4-hermonville 18-08-2026 - 14:08 26.7°C / 50%
h2-hermonville 18-08-2026 - 14:03 26.1°C / 53%
h1-hermonville 18-08-2026 - 14:03 26.1°C / 53%
h3-hermonville 18-08-2026 - 13:59 25.6°C / 53%
h4-hermonville 18-08-2026 - 13:58 26.5°C / 50%
h2-hermonville 18-08-2026 - 13:53 25.9°C / 53%
h1-hermonville 18-08-2026 - 13:53 25.9°C / 53%
h3-hermonville 18-08-2026 - 13:49 25.5°C / 53.5%
h4-hermonville 18-08-2026 - 13:48 26.3°C / 51%
h2-hermonville 18-08-2026 - 13:43 25.6°C / 54%
h1-hermonville 18-08-2026 - 13:43 25.6°C / 54%
h3-hermonville 18-08-2026 - 13:39 25.3°C / 54%
h4-hermonville 18-08-2026 - 13:38 26.1°C / 51.5%
h2-hermonville 18-08-2026 - 13:33 25.4°C / 54%
h1-hermonville 18-08-2026 - 13:33 25.5°C / 54%
h3-hermonville 18-08-2026 - 13:29 25.3°C / 54%
h2-hermonville 18-08-2026 - 13:23 25°C / 54.5%
h1-hermonville 18-08-2026 - 13:23 25.2°C / 54%
h3-hermonville 18-08-2026 - 13:19 24.8°C / 54.5%
h4-hermonville 18-08-2026 - 13:18 25.6°C / 51%
h2-hermonville 18-08-2026 - 13:13 24.9°C / 54.5%
h1-hermonville 18-08-2026 - 13:13 25.2°C / 54%
h3-hermonville 18-08-2026 - 13:09 24.6°C / 54.5%
h4-hermonville 18-08-2026 - 13:08 25.6°C / 51%
h2-hermonville 18-08-2026 - 13:03 24.8°C / 54.5%
h1-hermonville 18-08-2026 - 13:03 24.9°C / 54%
h2-hermonville 18-08-2026 - 12:53 24.4°C / 55%
h1-hermonville 18-08-2026 - 12:53 24.7°C / 54.5%
h3-hermonville 18-08-2026 - 12:49 24.3°C / 55%
h4-hermonville 18-08-2026 - 12:48 25.7°C / 50.5%
h2-hermonville 18-08-2026 - 12:43 24.3°C / 55.5%
h1-hermonville 18-08-2026 - 12:43 24.5°C / 55%
h4-hermonville 18-08-2026 - 12:38 25.5°C / 50.5%
h2-hermonville 18-08-2026 - 12:33 24.2°C / 55%
h1-hermonville 18-08-2026 - 12:33 24.3°C / 54.5%
h3-hermonville 18-08-2026 - 12:29 24°C / 55%
h4-hermonville 18-08-2026 - 12:28 25.5°C / 50.5%
h2-hermonville 18-08-2026 - 12:23 24.1°C / 56%
h1-hermonville 18-08-2026 - 12:23 24.2°C / 56%
h3-hermonville 18-08-2026 - 12:19 23.8°C / 56.5%
h4-hermonville 18-08-2026 - 12:18 25.7°C / 50%
h2-hermonville 18-08-2026 - 12:13 24°C / 56.5%
h1-hermonville 18-08-2026 - 12:13 24.1°C / 56.5%
h3-hermonville 18-08-2026 - 12:09 23.8°C / 56.5%
h4-hermonville 18-08-2026 - 12:08 26°C / 49%
h2-hermonville 18-08-2026 - 12:03 23.8°C / 57%
h1-hermonville 18-08-2026 - 12:03 24°C / 56.5%
h3-hermonville 18-08-2026 - 11:59 23.8°C / 56.5%
h4-hermonville 18-08-2026 - 11:58 26.4°C / 48.5%
h2-hermonville 18-08-2026 - 11:53 23.4°C / 58.5%
h1-hermonville 18-08-2026 - 11:53 23.6°C / 57.5%
h3-hermonville 18-08-2026 - 11:49 23.2°C / 57.5%
h4-hermonville 18-08-2026 - 11:48 27°C / 47.5%
h2-hermonville 18-08-2026 - 11:43 23.4°C / 59.5%
h1-hermonville 18-08-2026 - 11:43 23.5°C / 59.5%
h3-hermonville 18-08-2026 - 11:39 23.2°C / 59.5%
h4-hermonville 18-08-2026 - 11:38 27.5°C / 47%
h2-hermonville 18-08-2026 - 11:33 23°C / 60.5%
h1-hermonville 18-08-2026 - 11:33 23.2°C / 60%
h3-hermonville 18-08-2026 - 11:29 22.8°C / 61%
h4-hermonville 18-08-2026 - 11:28 27.2°C / 49%
h2-hermonville 18-08-2026 - 11:23 22.6°C / 63%
h1-hermonville 18-08-2026 - 11:23 22.8°C / 62.5%
h3-hermonville 18-08-2026 - 11:19 22.3°C / 63%
h4-hermonville 18-08-2026 - 11:18 26.2°C / 51%
h2-hermonville 18-08-2026 - 11:13 22.8°C / 62.5%
h3-hermonville 18-08-2026 - 11:09 22.5°C / 63%
h4-hermonville 18-08-2026 - 11:08 27°C / 49%
h2-hermonville 18-08-2026 - 11:03 22.5°C / 64.5%
h1-hermonville 18-08-2026 - 11:03 22.8°C / 63%
h3-hermonville 18-08-2026 - 10:59 22.6°C / 63%
h4-hermonville 18-08-2026 - 10:58 29°C / 45%
h2-hermonville 18-08-2026 - 10:53 22.2°C / 66%
h1-hermonville 18-08-2026 - 10:53 22.7°C / 64.5%
h3-hermonville 18-08-2026 - 10:49 22.4°C / 65.5%
h2-hermonville 18-08-2026 - 10:43 22.2°C / 67%
h1-hermonville 18-08-2026 - 10:43 22.4°C / 65.5%
h4-hermonville 18-08-2026 - 10:38 27.2°C / 50.5%
h2-hermonville 18-08-2026 - 10:33 22°C / 67%
h1-hermonville 18-08-2026 - 10:33 22.4°C / 65.5%
h3-hermonville 18-08-2026 - 10:29 22°C / 66.5%
h4-hermonville 18-08-2026 - 10:28 27.7°C / 49.5%
h2-hermonville 18-08-2026 - 10:23 21.9°C / 69%
h1-hermonville 18-08-2026 - 10:23 22.3°C / 67%
h3-hermonville 18-08-2026 - 10:19 21.8°C / 68%
h4-hermonville 18-08-2026 - 10:18 27.1°C / 51.5%
h2-hermonville 18-08-2026 - 10:13 21.6°C / 69.5%
h1-hermonville 18-08-2026 - 10:13 22.2°C / 67.5%
h4-hermonville 18-08-2026 - 10:08 26°C / 54.5%
h2-hermonville 18-08-2026 - 10:03 21.5°C / 70%
h1-hermonville 18-08-2026 - 10:03 22°C / 68.5%
h3-hermonville 18-08-2026 - 09:59 21.5°C / 70%
h2-hermonville 18-08-2026 - 09:53 21.3°C / 71%
h1-hermonville 18-08-2026 - 09:53 21.9°C / 69%
h3-hermonville 18-08-2026 - 09:49 21.4°C / 71%
h4-hermonville 18-08-2026 - 09:48 26.2°C / 55%
h2-hermonville 18-08-2026 - 09:43 21.3°C / 72%
h1-hermonville 18-08-2026 - 09:43 21.7°C / 70%
h3-hermonville 18-08-2026 - 09:39 21.3°C / 71%
h4-hermonville 18-08-2026 - 09:38 26.6°C / 53%
h2-hermonville 18-08-2026 - 09:33 21.3°C / 71.5%
h1-hermonville 18-08-2026 - 09:33 21.6°C / 70.5%
h3-hermonville 18-08-2026 - 09:29 21.2°C / 71.5%
h4-hermonville 18-08-2026 - 09:28 26.3°C / 54.5%
h2-hermonville 18-08-2026 - 09:23 21.3°C / 72.5%
h1-hermonville 18-08-2026 - 09:23 21.4°C / 71.5%
h3-hermonville 18-08-2026 - 09:19 21°C / 72.5%
h4-hermonville 18-08-2026 - 09:18 25.8°C / 56%
h2-hermonville 18-08-2026 - 09:13 20.8°C / 74.5%
h1-hermonville 18-08-2026 - 09:13 21.3°C / 72.5%
h3-hermonville 18-08-2026 - 09:09 20.7°C / 74.5%
h4-hermonville 18-08-2026 - 09:08 26.4°C / 55%
h2-hermonville 18-08-2026 - 09:03 20.6°C / 75%
h1-hermonville 18-08-2026 - 09:03 21°C / 73.5%
h3-hermonville 18-08-2026 - 08:59 20.5°C / 74.5%
h4-hermonville 18-08-2026 - 08:58 26.1°C / 55.5%
h2-hermonville 18-08-2026 - 08:53 20.5°C / 75%
h1-hermonville 18-08-2026 - 08:53 20.8°C / 73.5%
h3-hermonville 18-08-2026 - 08:49 20.2°C / 75.5%
h4-hermonville 18-08-2026 - 08:48 25.3°C / 57%
h2-hermonville 18-08-2026 - 08:43 20.1°C / 76%
h1-hermonville 18-08-2026 - 08:43 20.6°C / 74%
h3-hermonville 18-08-2026 - 08:39 19.8°C / 76.5%
h4-hermonville 18-08-2026 - 08:38 24.8°C / 59%
h2-hermonville 18-08-2026 - 08:33 19.9°C / 76.5%
h1-hermonville 18-08-2026 - 08:33 20.5°C / 74%
h3-hermonville 18-08-2026 - 08:29 19.7°C / 77%
h4-hermonville 18-08-2026 - 08:28 23.4°C / 63.5%
h2-hermonville 18-08-2026 - 08:23 19.8°C / 77%
h1-hermonville 18-08-2026 - 08:23 20.3°C / 74.5%
h3-hermonville 18-08-2026 - 08:19 19.5°C / 77%
h4-hermonville 18-08-2026 - 08:18 22.5°C / 65%
h2-hermonville 18-08-2026 - 08:13 19.9°C / 76.5%
h1-hermonville 18-08-2026 - 08:13 20.4°C / 74%
h3-hermonville 18-08-2026 - 08:09 19.7°C / 76.5%
h4-hermonville 18-08-2026 - 08:08 21.8°C / 67%
h1-hermonville 18-08-2026 - 08:03 20.5°C / 73.5%
h3-hermonville 18-08-2026 - 07:59 19.7°C / 76%
h4-hermonville 18-08-2026 - 07:58 21.5°C / 67.5%
h2-hermonville 18-08-2026 - 07:53 19.5°C / 77%
h1-hermonville 18-08-2026 - 07:53 20.5°C / 73.5%
h3-hermonville 18-08-2026 - 07:49 19.5°C / 76%
h4-hermonville 18-08-2026 - 07:48 21.5°C / 67.5%
h2-hermonville 18-08-2026 - 07:43 19.5°C / 77.5%
h1-hermonville 18-08-2026 - 07:43 20.3°C / 73.5%
h3-hermonville 18-08-2026 - 07:39 19.7°C / 76%
h4-hermonville 18-08-2026 - 07:38 21.5°C / 67.5%
h2-hermonville 18-08-2026 - 07:33 19.4°C / 78%
h1-hermonville 18-08-2026 - 07:33 20.2°C / 74%
h3-hermonville 18-08-2026 - 07:29 19.8°C / 75%
h4-hermonville 18-08-2026 - 07:28 21.2°C / 68%
h2-hermonville 18-08-2026 - 07:23 19.2°C / 78.5%
h3-hermonville 18-08-2026 - 07:19 19.6°C / 76%
h4-hermonville 18-08-2026 - 07:18 21.2°C / 68.5%
h2-hermonville 18-08-2026 - 07:13 19.1°C / 78.5%
h1-hermonville 18-08-2026 - 07:13 20°C / 74.5%
h3-hermonville 18-08-2026 - 07:09 19.6°C / 75.5%
h4-hermonville 18-08-2026 - 07:08 20.8°C / 69%
h2-hermonville 18-08-2026 - 07:03 19°C / 78.5%
h3-hermonville 18-08-2026 - 06:59 20.4°C / 72.5%
h4-hermonville 18-08-2026 - 06:58 20.6°C / 70%
h2-hermonville 18-08-2026 - 06:53 19°C / 78%
h1-hermonville 18-08-2026 - 06:53 19.7°C / 75%
h3-hermonville 18-08-2026 - 06:49 20.2°C / 72.5%
h4-hermonville 18-08-2026 - 06:48 20.5°C / 69.5%
h2-hermonville 18-08-2026 - 06:43 18.9°C / 78%
h1-hermonville 18-08-2026 - 06:43 19.6°C / 75%
h3-hermonville 18-08-2026 - 06:39 19.8°C / 74%
h4-hermonville 18-08-2026 - 06:38 20.7°C / 69%
h2-hermonville 18-08-2026 - 06:33 19°C / 77.5%
h1-hermonville 18-08-2026 - 06:33 19.6°C / 75%
h3-hermonville 18-08-2026 - 06:29 20°C / 72.5%
h4-hermonville 18-08-2026 - 06:28 20.7°C / 69%
h2-hermonville 18-08-2026 - 06:23 19.2°C / 77%
h3-hermonville 18-08-2026 - 06:19 19.1°C / 76.5%
h4-hermonville 18-08-2026 - 06:18 20.8°C / 68%
h2-hermonville 18-08-2026 - 06:13 18.8°C / 78.5%
h1-hermonville 18-08-2026 - 06:13 19.6°C / 75%
h3-hermonville 18-08-2026 - 06:09 18.5°C / 78%
h4-hermonville 18-08-2026 - 06:08 20.8°C / 68%
h1-hermonville 18-08-2026 - 06:03 19.8°C / 74%
h3-hermonville 18-08-2026 - 05:59 19.3°C / 75%
h4-hermonville 18-08-2026 - 05:58 20.9°C / 67.5%
h2-hermonville 18-08-2026 - 05:53 18.9°C / 77%
h1-hermonville 18-08-2026 - 05:53 19.9°C / 73%
h3-hermonville 18-08-2026 - 05:49 20°C / 72%
h4-hermonville 18-08-2026 - 05:48 20.8°C / 67.5%
h2-hermonville 18-08-2026 - 05:43 19.2°C / 76%
h1-hermonville 18-08-2026 - 05:43 19.9°C / 73%
h3-hermonville 18-08-2026 - 05:39 20.3°C / 70.5%
h4-hermonville 18-08-2026 - 05:38 20.6°C / 68%
h1-hermonville 18-08-2026 - 05:33 19.8°C / 72.5%
h3-hermonville 18-08-2026 - 05:29 20.4°C / 69.5%
h4-hermonville 18-08-2026 - 05:28 20.5°C / 68%
h2-hermonville 18-08-2026 - 05:23 19.2°C / 74.5%
h1-hermonville 18-08-2026 - 05:23 19.7°C / 73%
h3-hermonville 18-08-2026 - 05:19 20.5°C / 69%
h4-hermonville 18-08-2026 - 05:18 20.6°C / 67.5%
h2-hermonville 18-08-2026 - 05:13 19.2°C / 75%
h1-hermonville 18-08-2026 - 05:13 19.6°C / 73%
h3-hermonville 18-08-2026 - 05:09 20.3°C / 69%
h4-hermonville 18-08-2026 - 05:08 20.6°C / 67.5%
h2-hermonville 18-08-2026 - 05:03 19.2°C / 74.5%
h1-hermonville 18-08-2026 - 05:03 19.7°C / 72.5%
h3-hermonville 18-08-2026 - 04:59 20.8°C / 68%
h4-hermonville 18-08-2026 - 04:58 20.7°C / 67.5%
h2-hermonville 18-08-2026 - 04:53 19.6°C / 73.5%
h1-hermonville 18-08-2026 - 04:53 19.7°C / 72.5%
h3-hermonville 18-08-2026 - 04:49 20.9°C / 68%
h4-hermonville 18-08-2026 - 04:48 20.9°C / 67%
h2-hermonville 18-08-2026 - 04:43 19.2°C / 75%
h1-hermonville 18-08-2026 - 04:43 19.9°C / 72%
h3-hermonville 18-08-2026 - 04:39 20.9°C / 68%
h4-hermonville 18-08-2026 - 04:38 20.8°C / 66.5%
h2-hermonville 18-08-2026 - 04:33 19.4°C / 74%
h1-hermonville 18-08-2026 - 04:33 19.9°C / 72.5%
h3-hermonville 18-08-2026 - 04:29 21.1°C / 68%
h4-hermonville 18-08-2026 - 04:28 21.1°C / 66%
h2-hermonville 18-08-2026 - 04:23 19.7°C / 73%
h1-hermonville 18-08-2026 - 04:23 19.8°C / 72.5%
h3-hermonville 18-08-2026 - 04:19 21°C / 68%
h4-hermonville 18-08-2026 - 04:18 21.5°C / 65%
h2-hermonville 18-08-2026 - 04:13 19.8°C / 73%
h1-hermonville 18-08-2026 - 04:13 19.9°C / 72.5%
h3-hermonville 18-08-2026 - 04:09 21.2°C / 67.5%
h4-hermonville 18-08-2026 - 04:08 21.4°C / 65%
h2-hermonville 18-08-2026 - 04:03 19.8°C / 73.5%
h1-hermonville 18-08-2026 - 04:03 19.9°C / 73%
h4-hermonville 18-08-2026 - 03:58 21.8°C / 64.5%
h2-hermonville 18-08-2026 - 03:53 19.7°C / 74%
h1-hermonville 18-08-2026 - 03:53 20.4°C / 71.5%
h3-hermonville 18-08-2026 - 03:49 21°C / 68.5%
h4-hermonville 18-08-2026 - 03:48 21.8°C / 65%
h2-hermonville 18-08-2026 - 03:43 19.9°C / 73.5%
h1-hermonville 18-08-2026 - 03:43 20.2°C / 72%
h3-hermonville 18-08-2026 - 03:39 20.2°C / 71%
h4-hermonville 18-08-2026 - 03:38 22°C / 63.5%
h2-hermonville 18-08-2026 - 03:33 20.3°C / 71%
h1-hermonville 18-08-2026 - 03:33 20.3°C / 72.5%
h3-hermonville 18-08-2026 - 03:29 21.5°C / 67%
h4-hermonville 18-08-2026 - 03:28 22°C / 63.5%
h2-hermonville 18-08-2026 - 03:23 21.5°C / 67.5%
h1-hermonville 18-08-2026 - 03:23 19.8°C / 75%
h4-hermonville 18-08-2026 - 03:18 22.4°C / 63.5%
h2-hermonville 18-08-2026 - 03:13 21.7°C / 67%
h1-hermonville 18-08-2026 - 03:13 19.6°C / 75.5%
h3-hermonville 18-08-2026 - 03:09 21°C / 69%
h4-hermonville 18-08-2026 - 03:08 22.4°C / 62.5%
h2-hermonville 18-08-2026 - 03:03 22.3°C / 64.5%
h1-hermonville 18-08-2026 - 03:03 19.6°C / 75.5%
h3-hermonville 18-08-2026 - 02:59 20.9°C / 68.5%
h4-hermonville 18-08-2026 - 02:58 22.3°C / 62%
h2-hermonville 18-08-2026 - 02:53 22°C / 64.5%
h3-hermonville 18-08-2026 - 02:49 21.4°C / 66%
h4-hermonville 18-08-2026 - 02:48 22.2°C / 62%
h2-hermonville 18-08-2026 - 02:43 21.6°C / 65.5%
h1-hermonville 18-08-2026 - 02:43 19.9°C / 72.5%
h3-hermonville 18-08-2026 - 02:39 21.7°C / 64.5%
h4-hermonville 18-08-2026 - 02:38 22.1°C / 62%
h2-hermonville 18-08-2026 - 02:33 21.6°C / 65%
h1-hermonville 18-08-2026 - 02:33 20.2°C / 71%
h3-hermonville 18-08-2026 - 02:29 21.4°C / 66%
h4-hermonville 18-08-2026 - 02:28 22.4°C / 62%
h2-hermonville 18-08-2026 - 02:23 22.1°C / 64%
h1-hermonville 18-08-2026 - 02:23 20.2°C / 71%
h3-hermonville 18-08-2026 - 02:19 21.6°C / 64.5%
h4-hermonville 18-08-2026 - 02:18 22.4°C / 61%
h2-hermonville 18-08-2026 - 02:13 22.2°C / 63%
h1-hermonville 18-08-2026 - 02:13 20.4°C / 69.5%
h3-hermonville 18-08-2026 - 02:09 21.7°C / 64%
h4-hermonville 18-08-2026 - 02:08 22.4°C / 61%
h2-hermonville 18-08-2026 - 02:03 21.9°C / 63%
h1-hermonville 18-08-2026 - 02:03 20.4°C / 69%
h3-hermonville 18-08-2026 - 01:59 21.5°C / 64.5%
h4-hermonville 18-08-2026 - 01:58 22.4°C / 60%
h2-hermonville 18-08-2026 - 01:53 22.8°C / 60%
h1-hermonville 18-08-2026 - 01:53 20.4°C / 69%
h3-hermonville 18-08-2026 - 01:49 21.3°C / 64.5%
h4-hermonville 18-08-2026 - 01:48 22.6°C / 59.5%
h2-hermonville 18-08-2026 - 01:43 23.5°C / 58%
h1-hermonville 18-08-2026 - 01:43 20.3°C / 68.5%
h3-hermonville 18-08-2026 - 01:39 21.3°C / 64%
h2-hermonville 18-08-2026 - 01:33 23.7°C / 57%
h1-hermonville 18-08-2026 - 01:33 20.4°C / 68%
h3-hermonville 18-08-2026 - 01:29 21.4°C / 64%
h4-hermonville 18-08-2026 - 01:28 22.7°C / 58.5%
h2-hermonville 18-08-2026 - 01:23 23.9°C / 56%
h1-hermonville 18-08-2026 - 01:23 20.5°C / 67.5%
h3-hermonville 18-08-2026 - 01:19 21.5°C / 63%
h4-hermonville 18-08-2026 - 01:18 22.7°C / 58%
h2-hermonville 18-08-2026 - 01:13 23.9°C / 56.5%
h1-hermonville 18-08-2026 - 01:13 20.8°C / 66%
h3-hermonville 18-08-2026 - 01:09 21.7°C / 61.5%
h4-hermonville 18-08-2026 - 01:08 23°C / 57.5%
h2-hermonville 18-08-2026 - 01:03 23.6°C / 56.5%
h1-hermonville 18-08-2026 - 01:03 20.9°C / 65.5%
h3-hermonville 18-08-2026 - 00:59 21.8°C / 61.5%
h4-hermonville 18-08-2026 - 00:58 23°C / 57%
h2-hermonville 18-08-2026 - 00:53 23.9°C / 55.5%
h1-hermonville 18-08-2026 - 00:53 21.1°C / 65%
h3-hermonville 18-08-2026 - 00:49 21.8°C / 61.5%
h4-hermonville 18-08-2026 - 00:48 23°C / 57%
h2-hermonville 18-08-2026 - 00:43 24.3°C / 54.5%
h1-hermonville 18-08-2026 - 00:43 21°C / 64.5%
h3-hermonville 18-08-2026 - 00:39 22.1°C / 60.5%
h4-hermonville 18-08-2026 - 00:38 23.1°C / 56%
h2-hermonville 18-08-2026 - 00:33 24.5°C / 53.5%
h1-hermonville 18-08-2026 - 00:33 21.3°C / 63.5%
h3-hermonville 18-08-2026 - 00:29 22°C / 60%
h4-hermonville 18-08-2026 - 00:28 23.2°C / 56%
h2-hermonville 18-08-2026 - 00:23 24.9°C / 52.5%
h1-hermonville 18-08-2026 - 00:23 21.5°C / 63%
h3-hermonville 18-08-2026 - 00:19 22.3°C / 59.5%
h4-hermonville 18-08-2026 - 00:18 23.3°C / 55.5%
h2-hermonville 18-08-2026 - 00:13 24.6°C / 53%
h1-hermonville 18-08-2026 - 00:13 21.7°C / 62%
h3-hermonville 18-08-2026 - 00:09 22.3°C / 59%
h4-hermonville 18-08-2026 - 00:08 23.5°C / 55%
h2-hermonville 18-08-2026 - 00:03 25.3°C / 51.5%
h1-hermonville 18-08-2026 - 00:03 21.7°C / 61.5%